createdAt,value
2023-01-29T00:02:24.891Z,45.67
2023-01-29T00:04:53.740Z,44.95
2023-01-29T00:07:26.878Z,43.30
2023-01-29T00:09:55.498Z,45.47
2023-01-29T00:12:23.659Z,43.97
2023-01-29T00:14:53.143Z,42.13
2023-01-29T00:17:21.468Z,43.03
2023-01-29T00:19:49.593Z,41.55
2023-01-29T00:22:17.675Z,46.17
2023-01-29T00:24:47.069Z,40.22
2023-01-29T00:27:15.584Z,44.05
2023-01-29T00:29:43.795Z,44.25
2023-01-29T00:32:12.037Z,41.38
2023-01-29T00:34:40.219Z,40.92
2023-01-29T00:37:09.012Z,40.63
2023-01-29T00:39:47.866Z,40.25
2023-01-29T00:42:35.234Z,40.70
2023-01-29T00:45:03.356Z,41.95
2023-01-29T00:47:34.616Z,41.55
2023-01-29T00:50:03.252Z,38.50
2023-01-29T00:52:31.727Z,38.75
2023-01-29T00:55:01.483Z,42.00
2023-01-29T00:57:33.061Z,40.50
2023-01-29T01:00:01.164Z,39.45
2023-01-29T01:02:47.246Z,42.05
2023-01-29T01:05:19.025Z,42.40
2023-01-29T01:07:48.261Z,38.67
2023-01-29T01:10:24.278Z,39.65
2023-01-29T01:12:58.070Z,39.92
2023-01-29T01:15:28.269Z,38.92
2023-01-29T01:17:58.315Z,40.58
2023-01-29T01:20:28.629Z,40.35
2023-01-29T01:22:57.057Z,40.90
2023-01-29T01:25:26.496Z,39.65
2023-01-29T01:27:57.268Z,36.58
2023-01-29T01:30:25.949Z,39.22
2023-01-29T01:32:54.359Z,37.25
2023-01-29T01:35:22.498Z,37.35
2023-01-29T01:37:50.688Z,39.85
2023-01-29T01:40:20.085Z,41.47
2023-01-29T01:42:50.296Z,40.03
2023-01-29T01:45:26.825Z,39.03
2023-01-29T01:48:00.815Z,41.97
2023-01-29T01:50:32.631Z,42.83
2023-01-29T01:53:04.323Z,45.83
2023-01-29T01:55:37.211Z,43.17
2023-01-29T01:58:10.114Z,42.15
2023-01-29T02:00:41.015Z,42.83
2023-01-29T02:03:29.240Z,47.03
2023-01-29T02:06:17.613Z,44.10
2023-01-29T02:09:11.685Z,45.60
2023-01-29T02:11:39.943Z,49.95
2023-01-29T02:14:08.442Z,46.72
2023-01-29T02:16:38.420Z,48.35
2023-01-29T02:19:12.491Z,48.38
2023-01-29T02:22:06.546Z,48.43
2023-01-29T02:24:57.188Z,47.60
2023-01-29T02:27:34.985Z,46.35
2023-01-29T02:30:09.258Z,50.97
2023-01-29T02:32:54.291Z,47.85
2023-01-29T02:35:32.131Z,49.05
2023-01-29T02:38:12.962Z,46.90
2023-01-29T02:40:46.860Z,46.63
2023-01-29T02:43:26.992Z,49.38
2023-01-29T02:46:03.993Z,49.72
2023-01-29T02:48:42.796Z,46.95
2023-01-29T02:51:16.618Z,48.67
2023-01-29T02:53:54.669Z,48.17
2023-01-29T02:56:30.183Z,47.55
2023-01-29T02:59:03.210Z,47.70
2023-01-29T03:01:37.844Z,46.40
2023-01-29T03:04:13.169Z,44.97
2023-01-29T03:06:45.306Z,49.58
2023-01-29T03:09:21.003Z,46.03
2023-01-29T03:11:54.048Z,47.70
2023-01-29T03:14:26.544Z,47.67
2023-01-29T03:16:56.423Z,47.75
2023-01-29T03:19:32.136Z,44.75
2023-01-29T03:22:04.320Z,48.00
2023-01-29T03:24:58.624Z,46.38
2023-01-29T03:27:48.120Z,46.03
2023-01-29T03:30:36.401Z,48.10
2023-01-29T03:33:09.221Z,45.58
2023-01-29T03:35:41.640Z,45.80
2023-01-29T03:38:12.646Z,44.25
2023-01-29T03:40:48.885Z,44.17
2023-01-29T03:43:27.921Z,44.67
2023-01-29T03:46:03.817Z,41.58
2023-01-29T03:48:37.924Z,42.17
2023-01-29T03:51:16.152Z,39.20
2023-01-29T03:53:49.893Z,40.22
2023-01-29T03:56:28.847Z,41.20
2023-01-29T03:59:01.921Z,39.85
2023-01-29T04:01:34.799Z,39.35
2023-01-29T04:04:10.224Z,39.78
2023-01-29T04:06:42.504Z,40.22
2023-01-29T04:09:16.625Z,40.60
2023-01-29T04:11:49.069Z,43.40
2023-01-29T04:14:18.842Z,42.53
2023-01-29T04:16:51.121Z,43.60
2023-01-29T04:19:20.869Z,44.30
2023-01-29T04:21:52.044Z,41.60
2023-01-29T04:24:20.364Z,40.63
2023-01-29T04:26:59.335Z,42.83
2023-01-29T04:29:41.552Z,42.97
2023-01-29T04:32:16.893Z,42.85
2023-01-29T04:35:00.192Z,41.72
2023-01-29T04:37:37.714Z,38.95
2023-01-29T04:40:16.836Z,39.72
2023-01-29T04:42:53.422Z,38.28
2023-01-29T04:45:29.082Z,39.00
2023-01-29T04:48:08.054Z,39.47
2023-01-29T04:50:41.431Z,39.20
2023-01-29T04:53:16.650Z,40.03
2023-01-29T04:55:50.885Z,39.50
2023-01-29T04:58:27.846Z,43.15
2023-01-29T05:00:56.515Z,41.83
2023-01-29T05:03:28.548Z,44.00
2023-01-29T05:06:01.569Z,46.35
2023-01-29T05:08:31.861Z,47.45
2023-01-29T05:11:01.398Z,60.53
2023-01-29T05:13:32.952Z,46.85
2023-01-29T05:16:05.580Z,41.65
2023-01-29T05:18:33.906Z,41.80
2023-01-29T05:21:07.728Z,45.45
2023-01-29T05:23:35.920Z,44.05
2023-01-29T05:26:04.090Z,48.38
2023-01-29T05:28:31.359Z,49.63
2023-01-29T05:30:59.626Z,49.85
2023-01-29T05:33:29.470Z,48.17
2023-01-29T05:35:59.627Z,48.55
2023-01-29T05:38:29.408Z,58.22
2023-01-29T05:41:00.008Z,48.75
2023-01-29T05:43:28.139Z,44.38
2023-01-29T05:45:57.371Z,44.75
2023-01-29T05:48:26.070Z,41.30
2023-01-29T05:50:54.162Z,47.22
2023-01-29T05:53:22.413Z,44.38
2023-01-29T05:55:51.858Z,49.33
2023-01-29T05:58:20.070Z,43.47
2023-01-29T06:00:48.181Z,42.83
2023-01-29T06:03:16.394Z,40.40
2023-01-29T06:05:44.577Z,48.30
2023-01-29T06:08:13.331Z,47.28
2023-01-29T06:10:41.453Z,41.38
2023-01-29T06:13:10.918Z,38.95
2023-01-29T06:15:40.979Z,41.05
2023-01-29T06:18:09.132Z,38.80
2023-01-29T06:20:37.940Z,37.55
2023-01-29T06:23:05.940Z,34.63
2023-01-29T06:25:34.115Z,32.42
2023-01-29T06:28:02.364Z,31.48
2023-01-29T06:30:32.069Z,30.48
2023-01-29T06:33:01.706Z,25.88
2023-01-29T06:35:29.994Z,26.10
2023-01-29T06:37:58.176Z,25.58
2023-01-29T06:40:26.343Z,26.38
2023-01-29T06:42:54.431Z,27.17
2023-01-29T06:45:22.474Z,32.97
2023-01-29T06:47:51.917Z,27.52
2023-01-29T06:50:20.073Z,28.23
2023-01-29T06:52:48.123Z,25.17
2023-01-29T06:55:16.172Z,23.65
2023-01-29T06:57:44.208Z,22.48
2023-01-29T07:00:13.514Z,23.40
2023-01-29T07:02:41.593Z,26.33
2023-01-29T07:05:11.176Z,27.33
2023-01-29T07:07:39.334Z,25.20
2023-01-29T07:10:08.481Z,25.63
2023-01-29T07:12:36.582Z,25.55
2023-01-29T07:15:05.059Z,23.65
2023-01-29T07:17:33.130Z,24.25
2023-01-29T07:20:01.287Z,24.90
2023-01-29T07:22:30.782Z,23.15
2023-01-29T07:24:59.060Z,23.67
2023-01-29T07:27:27.165Z,27.00
2023-01-29T07:29:55.221Z,32.10
2023-01-29T07:32:23.521Z,33.35
2023-01-29T07:34:51.642Z,24.83
2023-01-29T07:37:19.627Z,24.88
2023-01-29T07:39:49.077Z,31.50
2023-01-29T07:42:17.075Z,28.95
2023-01-29T07:44:48.190Z,31.27
2023-01-29T07:47:17.244Z,35.33
2023-01-29T07:49:45.542Z,42.47
2023-01-29T07:52:13.827Z,41.85
2023-01-29T07:54:42.038Z,37.63
2023-01-29T07:57:11.489Z,47.28
2023-01-29T07:59:39.634Z,40.25
2023-01-29T08:02:08.174Z,30.58
2023-01-29T08:04:36.326Z,37.55
2023-01-29T08:07:04.980Z,30.75
2023-01-29T08:09:33.137Z,36.50
2023-01-29T08:12:01.267Z,29.65
2023-01-29T08:14:30.679Z,29.67
2023-01-29T08:16:58.849Z,29.23
2023-01-29T08:19:26.949Z,29.70
2023-01-29T08:21:55.104Z,27.23
2023-01-29T08:24:28.211Z,31.08
2023-01-29T08:27:05.065Z,29.25
2023-01-29T08:29:34.622Z,31.20
2023-01-29T08:32:03.005Z,40.05
2023-01-29T08:34:31.112Z,41.70
2023-01-29T08:36:59.320Z,31.42
2023-01-29T08:39:27.370Z,49.30
2023-01-29T08:41:55.540Z,51.58
2023-01-29T08:44:23.637Z,36.53
2023-01-29T08:46:53.077Z,46.15
2023-01-29T08:49:21.062Z,40.63
2023-01-29T08:51:49.122Z,42.97
2023-01-29T08:54:17.378Z,36.55
2023-01-29T08:56:45.880Z,42.70
2023-01-29T08:59:14.150Z,38.42
2023-01-29T09:01:42.356Z,33.13
2023-01-29T09:04:11.885Z,40.47
2023-01-29T09:06:40.014Z,39.15
2023-01-29T09:09:08.330Z,31.05
2023-01-29T09:11:36.508Z,37.10
2023-01-29T09:14:04.662Z,40.92
2023-01-29T09:16:32.856Z,34.42
2023-01-29T09:19:00.937Z,37.40
2023-01-29T09:21:30.375Z,35.92
2023-01-29T09:23:58.488Z,35.72
2023-01-29T09:26:26.581Z,32.28
2023-01-29T09:28:54.734Z,28.52
2023-01-29T09:31:23.044Z,28.50
2023-01-29T09:33:51.322Z,33.42
2023-01-29T09:36:19.485Z,30.17
2023-01-29T09:38:48.906Z,31.48
2023-01-29T09:41:37.115Z,30.52
2023-01-29T09:44:12.632Z,36.88
2023-01-29T09:46:43.111Z,36.95
2023-01-29T09:49:17.818Z,33.50
2023-01-29T09:51:50.163Z,64.75
2023-01-29T09:54:24.403Z,42.20
2023-01-29T09:56:56.663Z,51.13
2023-01-29T09:59:26.654Z,52.67
2023-01-29T10:02:05.014Z,95.72
2023-01-29T10:05:00.547Z,43.20
2023-01-29T10:07:46.318Z,52.65
2023-01-29T10:10:28.912Z,40.05
2023-01-29T10:13:06.804Z,47.15
2023-01-29T10:15:43.575Z,70.25
2023-01-29T10:18:32.079Z,53.30
2023-01-29T10:21:13.485Z,62.15
2023-01-29T10:23:45.133Z,61.55
2023-01-29T10:26:14.962Z,68.72
2023-01-29T10:28:46.515Z,80.68
2023-01-29T10:31:19.810Z,52.35
2023-01-29T10:34:02.137Z,54.08
2023-01-29T10:36:37.672Z,53.00
2023-01-29T10:39:07.126Z,41.95
2023-01-29T10:41:56.189Z,32.33
2023-01-29T10:44:34.447Z,48.85
2023-01-29T10:47:19.604Z,32.22
2023-01-29T10:50:00.538Z,33.83
2023-01-29T10:52:41.254Z,64.43
2023-01-29T10:55:25.665Z,35.45
2023-01-29T10:58:06.116Z,41.28
2023-01-29T11:00:37.650Z,36.47
2023-01-29T11:03:26.832Z,40.10
2023-01-29T11:06:04.046Z,39.67
2023-01-29T11:08:38.183Z,38.92
2023-01-29T11:11:10.556Z,35.37
2023-01-29T11:13:44.753Z,33.35
2023-01-29T11:16:12.869Z,30.50
2023-01-29T11:18:55.635Z,35.85
2023-01-29T11:21:24.575Z,36.30
2023-01-29T11:24:06.031Z,38.00
2023-01-29T11:26:39.365Z,45.08
2023-01-29T11:29:32.160Z,47.10
2023-01-29T11:32:01.525Z,54.10
2023-01-29T11:34:29.720Z,38.83
2023-01-29T11:37:00.275Z,37.70
2023-01-29T11:39:30.342Z,48.63
2023-01-29T11:42:00.462Z,43.50
2023-01-29T11:44:32.938Z,38.60
2023-01-29T11:47:18.734Z,38.92
2023-01-29T11:49:49.631Z,41.50
2023-01-29T11:52:20.340Z,36.05
2023-01-29T11:54:54.221Z,31.85
2023-01-29T11:57:29.302Z,32.58
2023-01-29T12:00:01.883Z,29.27
2023-01-29T12:02:37.313Z,28.33
2023-01-29T12:05:16.450Z,31.17
2023-01-29T12:07:46.560Z,32.67
2023-01-29T12:10:31.931Z,29.20
2023-01-29T12:15:35.390Z,31.95
2023-01-29T12:18:14.082Z,43.58
2023-01-29T12:20:46.249Z,43.03
2023-01-29T12:23:28.543Z,51.47
2023-01-29T12:26:02.979Z,42.15
2023-01-29T12:28:43.853Z,39.67
2023-01-29T12:31:30.758Z,39.00
2023-01-29T12:34:06.665Z,36.70
2023-01-29T12:36:39.942Z,32.80
2023-01-29T12:39:10.109Z,35.42
2023-01-29T12:41:46.103Z,34.88
2023-01-29T12:44:18.237Z,35.65
2023-01-29T12:46:53.768Z,44.20
2023-01-29T12:49:26.106Z,38.35
2023-01-29T12:51:59.205Z,35.65
2023-01-29T12:54:36.190Z,38.13
2023-01-29T12:57:09.830Z,42.75
2023-01-29T12:59:43.190Z,42.22
2023-01-29T13:02:25.732Z,48.17
2023-01-29T13:05:00.528Z,35.17
2023-01-29T13:07:33.405Z,30.73
2023-01-29T13:10:13.845Z,33.45
2023-01-29T13:12:52.730Z,40.13
2023-01-29T13:15:26.113Z,38.58
2023-01-29T13:18:00.480Z,26.15
2023-01-29T13:20:31.341Z,25.58
2023-01-29T13:23:05.896Z,26.60
2023-01-29T13:25:34.028Z,24.80
2023-01-29T13:28:02.186Z,29.15
2023-01-29T13:30:32.224Z,67.75
2023-01-29T13:33:10.485Z,57.40
2023-01-29T13:35:43.848Z,35.50
2023-01-29T13:38:26.141Z,31.38
2023-01-29T13:40:58.258Z,30.30
2023-01-29T13:43:26.463Z,42.55
2023-01-29T13:45:55.905Z,30.30
2023-01-29T13:48:28.601Z,55.53
2023-01-29T13:50:58.557Z,49.97
2023-01-29T13:53:29.235Z,40.67
2023-01-29T13:56:30.617Z,38.20
2023-01-29T13:58:58.919Z,32.13
2023-01-29T14:02:04.606Z,44.90
2023-01-29T14:04:34.266Z,68.00
2023-01-29T14:07:04.288Z,58.92
2023-01-29T14:09:51.486Z,44.20
2023-01-29T14:12:46.679Z,47.78
2023-01-29T14:15:41.614Z,50.20
2023-01-29T14:18:28.609Z,53.03
2023-01-29T14:21:06.369Z,48.30
2023-01-29T14:23:48.165Z,39.10
2023-01-29T14:26:31.034Z,34.25
2023-01-29T14:29:03.706Z,33.38
2023-01-29T14:31:38.819Z,32.78
2023-01-29T14:34:14.752Z,33.55
2023-01-29T14:36:46.593Z,30.60
2023-01-29T14:39:24.671Z,33.92
2023-01-29T14:41:53.923Z,73.78
2023-01-29T14:44:59.205Z,66.75
2023-01-29T14:47:56.631Z,61.33
2023-01-29T14:50:48.245Z,49.50
2023-01-29T14:53:23.247Z,45.20
2023-01-29T14:58:29.384Z,45.90
2023-01-29T15:00:59.925Z,42.17
2023-01-29T15:03:41.269Z,38.88
2023-01-29T15:06:16.712Z,43.95
2023-01-29T15:08:52.359Z,47.65
2023-01-29T15:11:40.040Z,47.35
2023-01-29T15:14:24.051Z,36.22
2023-01-29T15:17:08.864Z,31.55
2023-01-29T15:19:40.457Z,32.08
2023-01-29T15:22:13.235Z,32.05
2023-01-29T15:24:44.553Z,41.85
2023-01-29T15:27:16.540Z,253.02
2023-01-29T15:29:49.280Z,75.22
2023-01-29T15:32:29.720Z,38.55
2023-01-29T15:35:00.430Z,39.78
2023-01-29T15:37:31.482Z,55.85
2023-01-29T15:40:02.589Z,49.20
2023-01-29T15:42:44.669Z,44.05
2023-01-29T15:45:23.264Z,49.85
2023-01-29T15:47:52.177Z,33.50
2023-01-29T15:50:20.571Z,29.00
2023-01-29T15:52:52.217Z,29.70
2023-01-29T15:55:24.898Z,28.23
2023-01-29T15:57:53.332Z,29.17
2023-01-29T16:00:26.281Z,31.67
2023-01-29T16:02:54.834Z,32.08
2023-01-29T16:05:27.792Z,32.08
2023-01-29T16:07:58.812Z,34.73
2023-01-29T16:10:31.053Z,36.92
2023-01-29T16:13:00.109Z,37.47
2023-01-29T16:15:36.714Z,43.17
2023-01-29T16:18:20.518Z,43.10
2023-01-29T16:20:52.975Z,40.47
2023-01-29T16:23:25.703Z,35.42
2023-01-29T16:25:56.938Z,42.00
2023-01-29T16:28:25.295Z,58.70
2023-01-29T16:30:58.663Z,84.43
2023-01-29T16:33:34.818Z,91.80
2023-01-29T16:36:05.835Z,86.97
2023-01-29T16:38:36.768Z,56.17
2023-01-29T16:41:16.814Z,34.65
2023-01-29T16:43:53.309Z,41.67
2023-01-29T16:46:26.445Z,39.15
2023-01-29T16:48:55.030Z,45.67
2023-01-29T16:51:27.036Z,33.72
2023-01-29T16:54:00.476Z,35.58
2023-01-29T16:56:33.730Z,35.85
2023-01-29T16:59:05.607Z,34.78
2023-01-29T17:01:36.176Z,35.58
2023-01-29T17:04:10.124Z,29.92
2023-01-29T17:06:39.943Z,31.27
2023-01-29T17:09:08.646Z,26.95
2023-01-29T17:11:41.850Z,27.88
2023-01-29T17:14:11.383Z,27.80
2023-01-29T17:16:51.245Z,28.00
2023-01-29T17:19:23.743Z,30.55
2023-01-29T17:21:54.753Z,30.85
2023-01-29T17:24:22.844Z,30.02
2023-01-29T17:26:53.026Z,31.92
2023-01-29T17:29:24.859Z,29.98
2023-01-29T17:31:53.118Z,30.88
2023-01-29T17:34:21.246Z,31.08
2023-01-29T17:36:49.496Z,30.13
2023-01-29T17:39:19.799Z,27.77
2023-01-29T17:41:50.935Z,31.60
2023-01-29T17:44:20.921Z,31.95
2023-01-29T17:46:49.815Z,32.85
2023-01-29T17:49:24.861Z,32.17
2023-01-29T17:54:22.067Z,36.03
2023-01-29T17:56:51.782Z,39.78
2023-01-29T17:59:23.038Z,47.35
2023-01-29T18:01:52.473Z,56.58
2023-01-29T18:04:20.866Z,42.97
2023-01-29T18:06:50.844Z,50.45
2023-01-29T18:09:21.530Z,37.90
2023-01-29T18:11:50.713Z,39.13
2023-01-29T18:14:19.284Z,37.15
2023-01-29T18:16:48.814Z,27.33
2023-01-29T18:19:21.735Z,27.42
2023-01-29T18:21:50.326Z,33.20
2023-01-29T18:24:20.453Z,29.02
2023-01-29T18:26:48.783Z,27.58
2023-01-29T18:29:16.892Z,32.50
2023-01-29T18:31:44.995Z,31.95
2023-01-29T18:34:14.506Z,35.47
2023-01-29T18:36:46.693Z,31.90
2023-01-29T18:39:15.042Z,28.05
2023-01-29T18:41:43.329Z,26.38
2023-01-29T18:44:11.877Z,36.13
2023-01-29T18:46:40.008Z,30.58
2023-01-29T18:49:08.114Z,23.05
2023-01-29T18:51:37.605Z,21.75
2023-01-29T18:54:06.027Z,25.85
2023-01-29T18:56:34.234Z,27.92
2023-01-29T18:59:03.120Z,32.65
2023-01-29T19:01:32.553Z,29.75
2023-01-29T19:04:01.839Z,38.78
2023-01-29T19:06:30.330Z,30.10
2023-01-29T19:08:59.851Z,29.73
2023-01-29T19:11:28.057Z,37.58
2023-01-29T19:13:56.103Z,35.58
2023-01-29T19:16:24.706Z,21.63
2023-01-29T19:18:56.043Z,17.95
2023-01-29T19:21:24.660Z,19.73
2023-01-29T19:23:52.825Z,27.02
2023-01-29T19:26:22.329Z,28.08
2023-01-29T19:28:51.093Z,23.35
2023-01-29T19:31:19.207Z,26.90
2023-01-29T19:33:47.360Z,28.30
2023-01-29T19:36:15.439Z,25.77
2023-01-29T19:38:43.566Z,33.15
2023-01-29T19:41:12.102Z,30.63
2023-01-29T19:43:43.052Z,27.27
2023-01-29T19:46:11.587Z,30.30
2023-01-29T19:48:39.638Z,29.42
2023-01-29T19:51:09.621Z,33.67
2023-01-29T19:53:38.429Z,31.30
2023-01-29T19:56:08.311Z,20.55
2023-01-29T19:58:37.115Z,19.77
2023-01-29T20:01:08.372Z,19.35
2023-01-29T20:03:38.056Z,19.60
2023-01-29T20:06:07.498Z,19.42
2023-01-29T20:08:36.473Z,19.95
2023-01-29T20:11:05.667Z,18.25
2023-01-29T20:13:34.276Z,20.10
2023-01-29T20:16:03.998Z,19.67
2023-01-29T20:18:34.040Z,19.67
2023-01-29T20:21:08.031Z,19.38
2023-01-29T20:23:38.723Z,19.65
2023-01-29T20:26:07.482Z,20.65
2023-01-29T20:28:36.275Z,19.35
2023-01-29T20:31:05.262Z,16.15
2023-01-29T20:33:37.031Z,16.20
2023-01-29T20:36:09.183Z,15.35
2023-01-29T20:38:37.325Z,14.80
2023-01-29T20:41:06.756Z,14.45
2023-01-29T20:43:35.469Z,15.68
2023-01-29T20:46:04.083Z,15.98
2023-01-29T20:48:33.221Z,15.85
2023-01-29T20:51:09.410Z,15.20
2023-01-29T20:53:38.537Z,15.35
2023-01-29T20:56:07.570Z,15.20
2023-01-29T20:58:35.849Z,15.20
2023-01-29T21:01:08.798Z,13.70
2023-01-29T21:03:36.881Z,15.35
2023-01-29T21:06:07.359Z,15.30
2023-01-29T21:08:36.333Z,15.13
2023-01-29T21:11:05.464Z,14.13
2023-01-29T21:13:33.752Z,14.73
2023-01-29T21:16:02.319Z,15.00
2023-01-29T21:18:30.872Z,13.98
2023-01-29T21:20:59.059Z,14.98
2023-01-29T21:23:28.595Z,13.77
2023-01-29T21:26:02.523Z,14.38
2023-01-29T21:28:30.579Z,13.85
2023-01-29T21:31:04.565Z,14.27
2023-01-29T21:33:34.115Z,12.25
2023-01-29T21:36:02.585Z,15.00
2023-01-29T21:38:32.124Z,13.43
2023-01-29T21:41:01.635Z,14.77
2023-01-29T21:43:28.953Z,15.57
2023-01-29T21:45:58.484Z,15.05
2023-01-29T21:48:27.143Z,14.20
2023-01-29T21:50:55.142Z,13.65
2023-01-29T21:53:23.470Z,14.13
2023-01-29T21:55:53.096Z,13.95
2023-01-29T21:58:21.209Z,14.52
2023-01-29T22:00:49.782Z,12.63
2023-01-29T22:03:18.062Z,13.73
2023-01-29T22:05:46.217Z,14.60
2023-01-29T22:08:14.890Z,13.40
2023-01-29T22:10:43.147Z,12.77
2023-01-29T22:13:12.731Z,13.38
2023-01-29T22:15:40.806Z,13.30
2023-01-29T22:18:11.098Z,13.68
2023-01-29T22:20:39.109Z,13.80
2023-01-29T22:23:07.107Z,13.13
2023-01-29T22:25:35.860Z,12.93
2023-01-29T22:28:03.936Z,13.27
2023-01-29T22:30:36.486Z,13.38
2023-01-29T22:33:04.730Z,14.43
2023-01-29T22:35:32.809Z,12.77
2023-01-29T22:38:01.163Z,13.52
2023-01-29T22:40:29.393Z,12.63
2023-01-29T22:42:57.515Z,12.10
2023-01-29T22:45:25.771Z,13.45
2023-01-29T22:47:55.380Z,12.77
2023-01-29T22:50:23.586Z,12.88
2023-01-29T22:52:53.920Z,12.07
2023-01-29T22:55:22.526Z,12.98
2023-01-29T22:57:50.951Z,12.15
2023-01-29T23:00:20.315Z,13.30
2023-01-29T23:02:48.555Z,11.95
2023-01-29T23:05:18.814Z,12.77
2023-01-29T23:07:46.944Z,12.38
2023-01-29T23:10:16.510Z,11.75
2023-01-29T23:12:44.880Z,12.32
2023-01-29T23:15:13.056Z,11.82
2023-01-29T23:17:41.190Z,11.77
2023-01-29T23:20:10.459Z,12.30
2023-01-29T23:22:39.996Z,12.45
2023-01-29T23:25:09.013Z,11.85
2023-01-29T23:27:36.247Z,13.15
2023-01-29T23:30:05.670Z,12.52
2023-01-29T23:32:34.280Z,12.48
2023-01-29T23:35:02.419Z,11.38
2023-01-29T23:37:30.474Z,12.15
2023-01-29T23:39:59.961Z,11.90
2023-01-29T23:42:28.101Z,11.73
2023-01-29T23:44:56.144Z,12.85
2023-01-29T23:47:24.177Z,11.00
2023-01-29T23:49:53.204Z,12.40
2023-01-29T23:52:21.296Z,11.02
2023-01-29T23:54:49.373Z,11.50
2023-01-29T23:57:18.866Z,11.20
2023-01-29T23:59:47.026Z,11.48
